MMHO/HMO METAR and TAF weather

Enter ICAO airport designator
Station Type Date Time Source
MMHO METAR 2020/01/23 08:41 UTC NOAA

MMHO 230841Z 15003KT 10SM SKC 13/12 A3004 RMK SLP175 57003 969 HZY


Station Type Date Time Source
MMHO Decoded METAR 2020/01/23 08:41 UTC NOAA

Hermosillo, Son., Mexico (MMHO) 29-04N 110-57W
Jan 23, 2020 - 03:41 AM EST / 2020.01.23 0841 UTC
Wind: from the SSE (150 degrees) at 3 MPH (3 KT):0
Visibility: 10 mile(s):0
Sky conditions: clear
Temperature: 55 F (13 C)
Dew Point: 53 F (12 C)
Relative Humidity: 93%
Pressure (altimeter): 30.04 in. Hg (1017 hPa)
Pressure tendency: 0.01 inches (0.3 hPa) lower than three hours ago
ob: MMHO 230841Z 15003KT 10SM SKC 13/12 A3004 RMK SLP175 57003 969 HZY
cycle: 8

Station Type Date Time Source
MMHO TAF 2020/01/23 06:40 UTC NOAA

TAF MMHO 230537Z 2306/2406 26004KT P6SM SKC
FM231800 24008KT P6SM SCT030
BECMG 2403/2405 09005KT SKC

Example: see airport list